Terminal Aerodrome Forecast
Issued by NWS St Louis, MO

Home | Current Version | Previous Version | Text Only | Print | Product List | Glossary On
Versions: 1 2 3 4 5 6 7 8 9 10 11 12 13 14 15 16 17 18 19 20 21 22 23 24
912
FTUS43 KLSX 171516 AAB
TAFSTL
TAF AMD
KSTL 171516Z 1715/1818 24012KT P6SM SCT080 BKN250
      TEMPO 1715/1717 BKN015
     FM171700 26011G17KT P6SM SCT035
     FM180100 27006KT P6SM FEW250=

USA.gov is the U.S. government's official web portal to all federal, state and local government web resources and services.